地図

経路データ

SID SEASON NUMBER BASIN SUBBASIN NAME ISO_TIME NATURE LAT LON WMO_WIND WMO_PRES WMO_AGENCY TRACK_TYPE DIST2LAND LANDFALL IFLAG USA_AGENCY USA_ATCF_ID USA_LAT USA_LON USA_RECORD USA_STATUS USA_WIND USA_PRES USA_SSHS USA_R34_NE USA_R34_SE USA_R34_SW USA_R34_NW USA_R50_NE USA_R50_SE USA_R50_SW USA_R50_NW USA_R64_NE USA_R64_SE USA_R64_SW USA_R64_NW USA_POCI USA_ROCI USA_RMW USA_EYE TOKYO_LAT TOKYO_LON TOKYO_GRADE TOKYO_WIND TOKYO_PRES TOKYO_R50_DIR TOKYO_R50_LONG TOKYO_R50_SHORT TOKYO_R30_DIR TOKYO_R30_LONG TOKYO_R30_SHORT TOKYO_LAND CMA_LAT CMA_LON CMA_CAT CMA_WIND CMA_PRES HKO_LAT HKO_LON HKO_CAT HKO_WIND HKO_PRES NEWDELHI_LAT NEWDELHI_LON NEWDELHI_GRADE NEWDELHI_WIND NEWDELHI_PRES NEWDELHI_CI NEWDELHI_DP NEWDELHI_POCI REUNION_LAT REUNION_LON REUNION_TYPE REUNION_WIND REUNION_PRES REUNION_TNUM REUNION_CI REUNION_RMW REUNION_R34_NE REUNION_R34_SE REUNION_R34_SW REUNION_R34_NW REUNION_R50_NE REUNION_R50_SE REUNION_R50_SW REUNION_R50_NW REUNION_R64_NE REUNION_R64_SE REUNION_R64_SW REUNION_R64_NW BOM_LAT BOM_LON BOM_TYPE BOM_WIND BOM_PRES BOM_TNUM BOM_CI BOM_RMW BOM_R34_NE BOM_R34_SE BOM_R34_SW BOM_R34_NW BOM_R50_NE BOM_R50_SE BOM_R50_SW BOM_R50_NW BOM_R64_NE BOM_R64_SE BOM_R64_SW BOM_R64_NW BOM_ROCI BOM_POCI BOM_EYE BOM_POS_METHOD BOM_PRES_METHOD NADI_LAT NADI_LON NADI_CAT NADI_WIND NADI_PRES WELLINGTON_LAT WELLINGTON_LON WELLINGTON_WIND WELLINGTON_PRES DS824_LAT DS824_LON DS824_STAGE DS824_WIND DS824_PRES TD9636_LAT TD9636_LON TD9636_STAGE TD9636_WIND TD9636_PRES TD9635_LAT TD9635_LON TD9635_WIND TD9635_PRES TD9635_ROCI NEUMANN_LAT NEUMANN_LON NEUMANN_CLASS NEUMANN_WIND NEUMANN_PRES MLC_LAT MLC_LON MLC_CLASS MLC_WIND MLC_PRES USA_GUST BOM_GUST BOM_GUST_PER REUNION_GUST REUNION_GUST_PER USA_SEAHGT USA_SEARAD_NE USA_SEARAD_SE USA_SEARAD_SW USA_SEARAD_NW STORM_SPEED STORM_DIR
1921249N10320 1921 44 NA NA NOT_NAMED 1921-09-06 00:00:00 TS 10.0000 -40.0000 40 hurdat_atl main 1398 1313 O_____________ hurdat_atl AL031921 10.0000 -40.0000 TS 40 0 20 270
1921249N10320 1921 44 NA NA NOT_NAMED 1921-09-06 03:00:00 TS 10.0031 -41.0000 main 1304 1218 P_____________ AL031921 10.0031 -41.0000 TS 40 0 20 270
1921249N10320 1921 44 NA NA NOT_NAMED 1921-09-06 06:00:00 TS 10.0000 -42.0000 40 hurdat_atl main 1209 1125 O_____________ hurdat_atl AL031921 10.0000 -42.0000 TS 40 0 20 270
1921249N10320 1921 44 NA NA NOT_NAMED 1921-09-06 09:00:00 TS 9.99220 -43.0001 main 1116 1036 P_____________ AL031921 9.99220 -43.0001 TS 42 0 20 270
1921249N10320 1921 44 NA NA NOT_NAMED 1921-09-06 12:00:00 TS 10.0000 -44.0000 45 hurdat_atl main 1028 952 O_____________ hurdat_atl AL031921 10.0000 -44.0000 TS 45 0 20 271
1921249N10320 1921 44 NA NA NOT_NAMED 1921-09-06 15:00:00 TS 10.0421 -44.9925 main 944 881 P_____________ AL031921 10.0421 -44.9925 TS 45 0 20 273
1921249N10320 1921 44 NA NA NOT_NAMED 1921-09-06 18:00:00 TS 10.1000 -46.0000 45 hurdat_atl main 874 804 O_____________ hurdat_atl AL031921 10.1000 -46.0000 TS 45 0 20 273
1921249N10320 1921 44 NA NA NOT_NAMED 1921-09-06 21:00:00 TS 10.1497 -47.0351 main 804 754 P_____________ AL031921 10.1497 -47.0351 TS 47 0 21 273
1921249N10320 1921 44 NA NA NOT_NAMED 1921-09-07 00:00:00 TS 10.2000 -48.1000 50 hurdat_atl main 748 680 O_____________ hurdat_atl AL031921 10.2000 -48.1000 TS 50 0 21 273
1921249N10320 1921 44 NA NA NOT_NAMED 1921-09-07 03:00:00 TS 10.2497 -49.1925 main 674 629 P_____________ AL031921 10.2497 -49.1925 TS 50 0 22 273
1921249N10320 1921 44 NA NA NOT_NAMED 1921-09-07 06:00:00 TS 10.3000 -50.3000 50 hurdat_atl main 624 579 O_____________ hurdat_atl AL031921 10.3000 -50.3000 TS 50 0 22 273
1921249N10320 1921 44 NA NA NOT_NAMED 1921-09-07 09:00:00 TS 10.3499 -51.4300 main 579 541 P_____________ AL031921 10.3499 -51.4300 TS 50 0 22 273
1921249N10320 1921 44 NA NA NOT_NAMED 1921-09-07 12:00:00 TS 10.4000 -52.5000 50 hurdat_atl main 537 511 O_____________ hurdat_atl AL031921 10.4000 -52.5000 TS 50 0 20 273
1921249N10320 1921 44 NA NA NOT_NAMED 1921-09-07 15:00:00 TS 10.4496 -53.4450 main 511 511 P_____________ AL031921 10.4496 -53.4450 TS 50 0 18 273
1921249N10320 1921 44 NA NA NOT_NAMED 1921-09-07 18:00:00 TS 10.5000 -54.3000 50 hurdat_atl main 515 511 O_____________ hurdat_atl AL031921 10.5000 -54.3000 TS 50 0 16 273
1921249N10320 1921 44 NA NA NOT_NAMED 1921-09-07 21:00:00 TS 10.5497 -55.1150 main 511 448 P_____________ AL031921 10.5497 -55.1150 TS 55 0 16 274
1921249N10320 1921 44 NA NA NOT_NAMED 1921-09-08 00:00:00 TS 10.6000 -55.9000 60 hurdat_atl main 448 385 O_____________ hurdat_atl AL031921 10.6000 -55.9000 TS 60 0 16 273
1921249N10320 1921 44 NA NA NOT_NAMED 1921-09-08 03:00:00 TS 10.6349 -56.7076 main 385 344 P_____________ AL031921 10.6349 -56.7076 TS 62 0 16 274
1921249N10320 1921 44 NA NA NOT_NAMED 1921-09-08 06:00:00 TS 10.7000 -57.5000 65 hurdat_atl main 344 306 O_____________ hurdat_atl AL031921 10.7000 -57.5000 HU 65 1 15 277
1921249N10320 1921 44 NA NA NOT_NAMED 1921-09-08 09:00:00 TS 10.8123 -58.2651 main 295 221 P_____________ AL031921 10.8123 -58.2651 HU 67 1 15 282
1921249N10320 1921 44 NA NA NOT_NAMED 1921-09-08 12:00:00 TS 11.0000 -59.0000 70 hurdat_atl main 221 152 O_____________ hurdat_atl AL031921 11.0000 -59.0000 HU 70 1 15 288
1921249N10320 1921 44 NA NA NOT_NAMED 1921-09-08 15:00:00 TS 11.2623 -59.7076 main 157 117 P_____________ AL031921 11.2623 -59.7076 HU 75 1 15 294
1921249N10320 1921 44 NA CS NOT_NAMED 1921-09-08 18:00:00 TS 11.6000 -60.4000 80 hurdat_atl main 120 114 O_____________ hurdat_atl AL031921 11.6000 -60.4000 HU 80 1 15 298
1921249N10320 1921 44 NA CS NOT_NAMED 1921-09-08 21:00:00 TS 11.9848 -61.1001 main 145 145 P_____________ AL031921 11.9848 -61.1001 HU 85 2 16 300
1921249N10320 1921 44 NA CS NOT_NAMED 1921-09-09 00:00:00 TS 12.4000 -61.8000 90 hurdat_atl main 190 190 O_____________ hurdat_atl AL031921 12.4000 -61.8000 HU 90 2 16 301
1921249N10320 1921 44 NA CS NOT_NAMED 1921-09-09 03:00:00 TS 12.7999 -62.5077 main 235 235 P_____________ AL031921 12.7999 -62.5077 HU 92 2 16 300
1921249N10320 1921 44 NA CS NOT_NAMED 1921-09-09 06:00:00 TS 13.2000 -63.2000 95 hurdat_atl main 280 280 O_____________ hurdat_atl AL031921 13.2000 -63.2000 HU 95 2 16 301
1921249N10320 1921 44 NA CS NOT_NAMED 1921-09-09 09:00:00 TS 13.6149 -63.8800 main 336 336 P_____________ AL031921 13.6149 -63.8800 HU 97 3 15 302
1921249N10320 1921 44 NA CS NOT_NAMED 1921-09-09 12:00:00 TS 14.0000 -64.5000 100 hurdat_atl main 382 382 O_____________ hurdat_atl AL031921 14.0000 -64.5000 HU 100 3 13 302
1921249N10320 1921 44 NA CS NOT_NAMED 1921-09-09 15:00:00 TS 14.3223 -65.0377 main 422 376 P_____________ AL031921 14.3223 -65.0377 HU 100 3 11 302
1921249N10320 1921 44 NA CS NOT_NAMED 1921-09-09 18:00:00 TS 14.6000 -65.5000 100 hurdat_atl main 376 348 O_____________ hurdat_atl AL031921 14.6000 -65.5000 HU 100 3 10 302
1921249N10320 1921 44 NA CS NOT_NAMED 1921-09-09 21:00:00 TS 14.8499 -65.9227 main 348 313 P_____________ AL031921 14.8499 -65.9227 HU 100 3 9 303
1921249N10320 1921 44 NA CS NOT_NAMED 1921-09-10 00:00:00 TS 15.1000 -66.3000 100 hurdat_atl main 313 281 O_____________ hurdat_atl AL031921 15.1000 -66.3000 HU 100 3 9 307
1921249N10320 1921 44 NA CS NOT_NAMED 1921-09-10 03:00:00 TS 15.3924 -66.6651 main 280 246 P_____________ AL031921 15.3924 -66.6651 HU 100 3 9 312
1921249N10320 1921 44 NA CS NOT_NAMED 1921-09-10 06:00:00 TS 15.7000 -67.0000 100 hurdat_atl main 246 212 O_____________ hurdat_atl AL031921 15.7000 -67.0000 HU 100 3 9 314
1921249N10320 1921 44 NA CS NOT_NAMED 1921-09-10 09:00:00 TS 16.0000 -67.3225 main 212 184 P_____________ AL031921 16.0000 -67.3225 HU 100 3 8 316
1921249N10320 1921 44 NA CS NOT_NAMED 1921-09-10 12:00:00 TS 16.3000 -67.6000 100 hurdat_atl main 184 158 O_____________ hurdat_atl AL031921 16.3000 -67.6000 HU 100 3 8 321
1921249N10320 1921 44 NA CS NOT_NAMED 1921-09-10 15:00:00 TS 16.5924 -67.8226 main 158 140 P_____________ AL031921 16.5924 -67.8226 HU 100 3 7 327
1921249N10320 1921 44 NA CS NOT_NAMED 1921-09-10 18:00:00 TS 16.9000 -68.0000 100 961 hurdat_atl main 140 119 O_____________ hurdat_atl AL031921 16.9000 -68.0000 HU 100 961 3 7 333
1921249N10320 1921 44 NA CS NOT_NAMED 1921-09-10 21:00:00 TS 17.2425 -68.1650 main 119 74 P_____________ AL031921 17.2425 -68.1650 HU 105 3 8 338
1921249N10320 1921 44 NA CS NOT_NAMED 1921-09-11 00:00:00 TS 17.6000 -68.3000 110 hurdat_atl main 74 39 O_____________ hurdat_atl AL031921 17.6000 -68.3000 HU 110 3 8 341
1921249N10320 1921 44 NA CS NOT_NAMED 1921-09-11 03:00:00 TS 17.9500 -68.4150 main 39 0 P_____________ AL031921 17.9500 -68.4150 HU 110 3 7 345
1921249N10320 1921 44 NA CS NOT_NAMED 1921-09-11 06:00:00 TS 18.3000 -68.5000 110 hurdat_atl main 0 0 O_____________ hurdat_atl AL031921 18.3000 -68.5000 HU 110 3 7 349
1921249N10320 1921 44 NA NA NOT_NAMED 1921-09-11 09:00:00 TS 18.6425 -68.5576 main 0 0 P_____________ AL031921 18.6425 -68.5576 HU 100 3 7 352
1921249N10320 1921 44 NA NA NOT_NAMED 1921-09-11 12:00:00 TS 19.0000 -68.6000 90 hurdat_atl main 22 22 O_____________ hurdat_atl AL031921 19.0000 -68.6000 HU 90 2 8 353
1921249N10320 1921 44 NA NA NOT_NAMED 1921-09-11 15:00:00 TS 19.3850 -68.6500 main 56 56 P_____________ AL031921 19.3850 -68.6500 HU 90 2 8 353
1921249N10320 1921 44 NA NA NOT_NAMED 1921-09-11 18:00:00 TS 19.8000 -68.7000 90 hurdat_atl main 84 84 O_____________ hurdat_atl AL031921 19.8000 -68.7000 HU 90 2 9 354
1921249N10320 1921 44 NA NA NOT_NAMED 1921-09-11 21:00:00 TS 20.2425 -68.7426 main 118 118 P_____________ AL031921 20.2425 -68.7426 HU 92 2 9 354
1921249N10320 1921 44 NA NA NOT_NAMED 1921-09-12 00:00:00 TS 20.7000 -68.8000 95 hurdat_atl main 165 165 O_____________ hurdat_atl AL031921 20.7000 -68.8000 HU 95 2 9 351
1921249N10320 1921 44 NA NA NOT_NAMED 1921-09-12 03:00:00 TS 21.1500 -68.8925 main 212 212 P_____________ AL031921 21.1500 -68.8925 HU 95 2 9 348
1921249N10320 1921 44 NA NA NOT_NAMED 1921-09-12 06:00:00 TS 21.6000 -69.0000 95 hurdat_atl main 246 246 O_____________ hurdat_atl AL031921 21.6000 -69.0000 HU 95 2 9 347
1921249N10320 1921 44 NA NA NOT_NAMED 1921-09-12 09:00:00 TS 22.0425 -69.1149 main 284 284 P_____________ AL031921 22.0425 -69.1149 HU 95 2 9 348
1921249N10320 1921 44 NA NA NOT_NAMED 1921-09-12 12:00:00 TS 22.5000 -69.2000 95 hurdat_atl main 334 334 O_____________ hurdat_atl AL031921 22.5000 -69.2000 HU 95 2 9 355
1921249N10320 1921 44 NA NA NOT_NAMED 1921-09-12 15:00:00 TS 22.9775 -69.2077 main 386 386 P_____________ AL031921 22.9775 -69.2077 HU 95 2 10 1
1921249N10320 1921 44 NA NA NOT_NAMED 1921-09-12 18:00:00 TS 23.5000 -69.2000 95 hurdat_atl main 438 438 O_____________ hurdat_atl AL031921 23.5000 -69.2000 HU 95 2 11 358
1921249N10320 1921 44 NA NA NOT_NAMED 1921-09-12 21:00:00 TS 24.0850 -69.2424 main 501 501 P_____________ AL031921 24.0850 -69.2424 HU 97 3 12 356
1921249N10320 1921 44 NA NA NOT_NAMED 1921-09-13 00:00:00 TS 24.7000 -69.3000 100 hurdat_atl main 544 544 O_____________ hurdat_atl AL031921 24.7000 -69.3000 HU 100 3 12 355
1921249N10320 1921 44 NA NA NOT_NAMED 1921-09-13 03:00:00 TS 25.3075 -69.3500 main 587 587 P_____________ AL031921 25.3075 -69.3500 HU 100 3 12 356
1921249N10320 1921 44 NA NA NOT_NAMED 1921-09-13 06:00:00 TS 25.9000 -69.4000 100 hurdat_atl main 640 640 O_____________ hurdat_atl AL031921 25.9000 -69.4000 HU 100 3 12 356
1921249N10320 1921 44 NA NA NOT_NAMED 1921-09-13 09:00:00 TS 26.4875 -69.4574 main 690 690 P_____________ AL031921 26.4875 -69.4574 HU 102 3 11 355
1921249N10320 1921 44 NA NA NOT_NAMED 1921-09-13 12:00:00 TS 27.0000 -69.5000 105 hurdat_atl main 738 738 O_____________ hurdat_atl AL031921 27.0000 -69.5000 HU 105 3 9 358
1921249N10320 1921 44 NA NA NOT_NAMED 1921-09-13 15:00:00 TS 27.3875 -69.5076 main 778 778 P_____________ AL031921 27.3875 -69.5076 HU 105 3 7 0
1921249N10320 1921 44 NA NA NOT_NAMED 1921-09-13 18:00:00 TS 27.7000 -69.5000 105 hurdat_atl main 807 807 O_____________ hurdat_atl AL031921 27.7000 -69.5000 HU 105 3 6 2
1921249N10320 1921 44 NA NA NOT_NAMED 1921-09-13 21:00:00 TS 28.0075 -69.5000 main 837 837 P_____________ AL031921 28.0075 -69.5000 HU 105 3 6 1
1921249N10320 1921 44 NA NA NOT_NAMED 1921-09-14 00:00:00 TS 28.3000 -69.5000 105 hurdat_atl main 868 868 O_____________ hurdat_atl AL031921 28.3000 -69.5000 HU 105 3 6 0
1921249N10320 1921 44 NA NA NOT_NAMED 1921-09-14 03:00:00 TS 28.6000 -69.5223 main 898 898 P_____________ AL031921 28.6000 -69.5223 HU 105 3 6 1
1921249N10320 1921 44 NA NA NOT_NAMED 1921-09-14 06:00:00 TS 28.9000 -69.5000 105 hurdat_atl main 923 906 O_____________ hurdat_atl AL031921 28.9000 -69.5000 HU 105 3 6 11
1921249N10320 1921 44 NA NA NOT_NAMED 1921-09-14 09:00:00 TS 29.1925 -69.3874 main 906 898 P_____________ AL031921 29.1925 -69.3874 HU 105 3 7 24
1921249N10320 1921 44 NA NA NOT_NAMED 1921-09-14 12:00:00 TS 29.5000 -69.2000 105 hurdat_atl main 898 889 O_____________ hurdat_atl AL031921 29.5000 -69.2000 HU 105 3 7 28
1921249N10320 1921 44 NA NA NOT_NAMED 1921-09-14 15:00:00 TS 29.8423 -68.9947 main 889 882 P_____________ AL031921 29.8423 -68.9947 HU 105 3 8 32
1921249N10320 1921 44 NA NA NOT_NAMED 1921-09-14 18:00:00 TS 30.2000 -68.7000 105 hurdat_atl main 882 882 O_____________ hurdat_atl AL031921 30.2000 -68.7000 HU 105 3 9 40
1921249N10320 1921 44 NA NA NOT_NAMED 1921-09-14 21:00:00 TS 30.5498 -68.3022 main 892 884 P_____________ AL031921 30.5498 -68.3022 HU 102 3 10 48
1921249N10320 1921 44 NA NA NOT_NAMED 1921-09-15 00:00:00 TS 30.9000 -67.8000 100 hurdat_atl main 898 898 O_____________ hurdat_atl AL031921 30.9000 -67.8000 HU 100 3 11 52
1921249N10320 1921 44 NA NA NOT_NAMED 1921-09-15 03:00:00 TS 31.2497 -67.2445 main 923 916 P_____________ AL031921 31.2497 -67.2445 HU 100 3 12 56
1921249N10320 1921 44 NA NA NOT_NAMED 1921-09-15 06:00:00 TS 31.6000 -66.6000 100 hurdat_atl main 945 945 O_____________ hurdat_atl AL031921 31.6000 -66.6000 HU 100 3 13 60
1921249N10320 1921 44 NA NA NOT_NAMED 1921-09-15 09:00:00 TS 31.9270 -65.8937 main 985 985 P_____________ AL031921 31.9270 -65.8937 HU 97 3 15 61
1921249N10320 1921 44 NA NA NOT_NAMED 1921-09-15 12:00:00 TS 32.3000 -65.1000 95 hurdat_atl main 1032 1032 O_____________ hurdat_atl AL031921 32.3000 -65.1000 HU 95 2 16 59
1921249N10320 1921 44 NA NA NOT_NAMED 1921-09-15 15:00:00 TS 32.7543 -64.2437 main 1087 1087 P_____________ AL031921 32.7543 -64.2437 HU 95 2 18 57
1921249N10320 1921 44 NA NA NOT_NAMED 1921-09-15 18:00:00 TS 33.3000 -63.3000 95 hurdat_atl main 1104 1093 O_____________ hurdat_atl AL031921 33.3000 -63.3000 HU 95 2 20 55
1921249N10320 1921 44 NA NA NOT_NAMED 1921-09-15 21:00:00 TS 33.8964 -62.3000 main 1098 1048 P_____________ AL031921 33.8964 -62.3000 HU 92 2 22 53
1921249N10320 1921 44 NA NA NOT_NAMED 1921-09-16 00:00:00 TS 34.6000 -61.2000 90 hurdat_atl main 1051 1011 O_____________ hurdat_atl AL031921 34.6000 -61.2000 HU 90 2 24 52
1921249N10320 1921 44 NA NA NOT_NAMED 1921-09-16 03:00:00 TS 35.3805 -60.0278 main 1008 977 P_____________ AL031921 35.3805 -60.0278 HU 90 2 27 50
1921249N10320 1921 44 NA NA NOT_NAMED 1921-09-16 06:00:00 TS 36.3000 -58.7000 90 hurdat_atl main 977 936 O_____________ hurdat_atl AL031921 36.3000 -58.7000 HU 90 2 30 50
1921249N10320 1921 44 NA NA NOT_NAMED 1921-09-16 09:00:00 TS 37.3251 -57.1492 main 939 877 P_____________ AL031921 37.3251 -57.1492 HU 90 2 34 49
1921249N10320 1921 44 NA NA NOT_NAMED 1921-09-16 12:00:00 TS 38.5000 -55.5000 90 hurdat_atl main 876 767 O_____________ hurdat_atl AL031921 38.5000 -55.5000 HU 90 2 35 46
1921249N10320 1921 44 NA NA NOT_NAMED 1921-09-16 15:00:00 TS 39.7659 -53.8859 main 756 614 P_____________ AL031921 39.7659 -53.8859 HU 87 2 37 42
1921249N10320 1921 44 NA NA NOT_NAMED 1921-09-16 18:00:00 TS 41.2000 -52.3000 85 964 hurdat_atl main 604 472 O_____________ hurdat_atl AL031921 41.2000 -52.3000 HU 85 964 2 38 38
1921249N10320 1921 44 NA NA NOT_NAMED 1921-09-16 21:00:00 TS 42.7879 -50.7357 main 465 389 P_____________ AL031921 42.7879 -50.7357 HU 82 962 1 40 35
1921249N10320 1921 44 NA NA NOT_NAMED 1921-09-17 00:00:00 TS 44.5000 -49.2000 80 hurdat_atl main 388 380 I_____________ hurdat_atl AL031921 44.5000 -49.2000 HU 80 961 1 41 33
1921249N10320 1921 44 NA NA NOT_NAMED 1921-09-17 03:00:00 TS 46.1958 -47.6380 main 405 400 P_____________ AL031921 46.1958 -47.6380 HU 77 960 1 41 32
1921249N10320 1921 44 NA NA NOT_NAMED 1921-09-17 06:00:00 ET 48.0000 -46.1000 75 959 hurdat_atl main 486 486 O_____________ hurdat_atl AL031921 48.0000 -46.1000 EX 75 959 -4 43 29
1921249N10320 1921 44 NA NA NOT_NAMED 1921-09-17 09:00:00 ET 49.9238 -44.5303 main 633 633 P_____________ AL031921 49.9238 -44.5303 EX 72 -4 45 27
1921249N10320 1921 44 NA NA NOT_NAMED 1921-09-17 12:00:00 ET 52.0000 -43.0000 70 hurdat_atl main 794 670 O_____________ hurdat_atl AL031921 52.0000 -43.0000 EX 70 -4 47 23
1921249N10320 1921 44 NA NA NOT_NAMED 1921-09-17 15:00:00 ET 54.2152 -41.5239 main 660 445 P_____________ AL031921 54.2152 -41.5239 EX 67 -4 48 21
1921249N10320 1921 44 NA NA NOT_NAMED 1921-09-17 18:00:00 ET 56.5000 -40.0000 65 hurdat_atl main 437 O_____________ hurdat_atl AL031921 56.5000 -40.0000 EX 65 -4 49 20

IBTrACS Databaseについて

本データベースは、米国NOAAが公開する1842年以降の世界の熱帯低気圧のベストトラックデータアーカイブInternational Best Track Archive for Climate Stewardship (IBTrACS)を、ウェブで閲覧しやすい形式に変換したものです。

最終更新日:2021-10-21